createdAt,value
2018-04-18T00:00:34.579Z,2.30
2018-04-18T00:03:01.183Z,1.92
2018-04-18T00:05:27.770Z,3.70
2018-04-18T00:07:54.360Z,2.25
2018-04-18T00:10:20.952Z,2.20
2018-04-18T00:12:47.540Z,3.22
2018-04-18T00:15:14.125Z,2.20
2018-04-18T00:17:40.716Z,2.95
2018-04-18T00:20:07.304Z,2.95
2018-04-18T00:22:33.892Z,2.33
2018-04-18T00:25:00.476Z,2.37
2018-04-18T00:27:27.074Z,2.87
2018-04-18T00:29:53.681Z,3.17
2018-04-18T00:32:20.276Z,2.45
2018-04-18T00:34:46.875Z,2.72
2018-04-18T00:37:13.487Z,2.20
2018-04-18T00:39:40.068Z,2.90
2018-04-18T00:42:06.668Z,2.35
2018-04-18T00:44:33.257Z,4.25
2018-04-18T00:46:59.844Z,2.87
2018-04-18T00:49:26.454Z,2.55
2018-04-18T00:51:53.046Z,2.20
2018-04-18T00:54:19.629Z,2.30
2018-04-18T00:56:46.226Z,1.70
2018-04-18T00:59:12.823Z,3.47
2018-04-18T01:01:39.404Z,3.33
2018-04-18T01:04:06.001Z,2.75
2018-04-18T01:06:32.588Z,2.85
2018-04-18T01:08:59.190Z,2.37
2018-04-18T01:11:25.787Z,2.15
2018-04-18T01:13:52.377Z,2.60
2018-04-18T01:16:18.968Z,2.25
2018-04-18T01:18:45.556Z,2.87
2018-04-18T01:21:12.151Z,2.03
2018-04-18T01:23:38.745Z,2.78
2018-04-18T01:26:05.332Z,2.50
2018-04-18T01:28:31.925Z,2.17
2018-04-18T01:30:58.509Z,2.42
2018-04-18T01:33:25.103Z,2.45
2018-04-18T01:35:51.695Z,1.92
2018-04-18T01:38:18.280Z,3.83
2018-04-18T01:40:44.878Z,3.40
2018-04-18T01:43:11.479Z,2.20
2018-04-18T01:45:38.079Z,2.22
2018-04-18T01:48:05.502Z,2.58
2018-04-18T01:50:32.109Z,2.58
2018-04-18T01:52:58.699Z,2.40
2018-04-18T01:55:25.290Z,2.67
2018-04-18T01:57:52.503Z,2.37
2018-04-18T02:00:19.100Z,2.50
2018-04-18T02:02:45.688Z,3.15
2018-04-18T02:05:12.287Z,2.40
2018-04-18T02:07:39.358Z,2.85
2018-04-18T02:10:05.955Z,2.83
2018-04-18T02:12:32.561Z,1.92
2018-04-18T02:14:59.144Z,2.50
2018-04-18T02:17:25.736Z,2.08
2018-04-18T02:19:52.412Z,3.15
2018-04-18T02:22:18.988Z,3.55
2018-04-18T02:24:45.590Z,2.55
2018-04-18T02:27:12.189Z,2.45
2018-04-18T02:29:38.773Z,2.40
2018-04-18T02:32:05.366Z,3.28
2018-04-18T02:34:31.961Z,2.15
2018-04-18T02:36:58.571Z,2.60
2018-04-18T02:39:25.161Z,4.78
2018-04-18T02:41:51.752Z,2.28
2018-04-18T02:44:18.368Z,4.05
2018-04-18T02:46:45.524Z,2.53
2018-04-18T02:49:12.632Z,3.50
2018-04-18T02:51:39.221Z,2.58
2018-04-18T02:54:05.813Z,2.20
2018-04-18T02:56:32.422Z,2.25
2018-04-18T02:58:59.015Z,3.10
2018-04-18T03:01:25.609Z,2.28
2018-04-18T03:03:52.215Z,4.22
2018-04-18T03:06:18.807Z,2.33
2018-04-18T03:08:45.407Z,2.92
2018-04-18T03:11:11.998Z,3.75
2018-04-18T03:13:38.610Z,2.00
2018-04-18T03:16:05.198Z,3.40
2018-04-18T03:18:31.792Z,3.55
2018-04-18T03:20:59.396Z,2.10
2018-04-18T03:23:26.877Z,3.78
2018-04-18T03:25:53.477Z,2.67
2018-04-18T03:28:20.079Z,1.85
2018-04-18T03:30:46.668Z,2.50
2018-04-18T03:33:13.270Z,2.45
2018-04-18T03:35:39.856Z,2.65
2018-04-18T03:38:06.440Z,1.92
2018-04-18T03:40:33.036Z,1.80
2018-04-18T03:42:59.625Z,2.58
2018-04-18T03:45:26.218Z,2.42
2018-04-18T03:47:52.800Z,2.92
2018-04-18T03:50:19.411Z,2.55
2018-04-18T03:52:45.988Z,2.10
2018-04-18T03:55:12.592Z,2.12
2018-04-18T03:57:39.186Z,2.35
2018-04-18T04:00:05.782Z,2.15
2018-04-18T04:02:32.393Z,2.12
2018-04-18T04:04:58.966Z,3.15
2018-04-18T04:07:26.578Z,2.92
2018-04-18T04:09:53.178Z,3.47
2018-04-18T04:12:19.783Z,2.58
2018-04-18T04:14:46.364Z,3.25
2018-04-18T04:17:18.849Z,2.00
2018-04-18T04:19:51.370Z,3.10
2018-04-18T04:22:24.726Z,2.95
2018-04-18T04:24:51.369Z,2.78
2018-04-18T04:27:18.783Z,2.25
2018-04-18T04:29:45.384Z,2.55
2018-04-18T04:32:11.979Z,2.90
2018-04-18T04:34:38.580Z,3.55
2018-04-18T04:37:05.245Z,1.90
2018-04-18T04:39:31.776Z,3.33
2018-04-18T04:41:58.379Z,2.22
2018-04-18T04:44:24.986Z,3.50
2018-04-18T04:46:51.580Z,2.58
2018-04-18T04:49:18.163Z,4.10
2018-04-18T04:51:44.763Z,3.03
2018-04-18T04:54:11.344Z,2.00
2018-04-18T04:56:37.950Z,2.00
2018-04-18T04:59:04.550Z,3.25
2018-04-18T05:01:31.145Z,2.35
2018-04-18T05:03:57.753Z,2.70
2018-04-18T05:06:24.339Z,2.22
2018-04-18T05:08:50.939Z,2.37
2018-04-18T05:11:18.259Z,2.55
2018-04-18T05:13:44.862Z,2.75
2018-04-18T05:16:11.458Z,3.37
2018-04-18T05:18:38.050Z,2.92
2018-04-18T05:21:05.216Z,3.20
2018-04-18T05:23:31.810Z,3.17
2018-04-18T05:25:58.414Z,2.33
2018-04-18T05:28:25.022Z,2.22
2018-04-18T05:30:52.584Z,3.62
2018-04-18T05:33:19.119Z,2.55
2018-04-18T05:35:45.700Z,1.85
2018-04-18T05:38:12.335Z,2.72
2018-04-18T05:40:38.928Z,2.78
2018-04-18T05:43:05.538Z,2.30
2018-04-18T05:45:32.140Z,2.87
2018-04-18T05:47:58.732Z,3.10
2018-04-18T05:50:25.354Z,2.42
2018-04-18T05:52:51.971Z,2.67
2018-04-18T05:55:18.597Z,2.22
2018-04-18T05:57:45.154Z,2.60
2018-04-18T06:00:11.720Z,2.60
2018-04-18T06:02:38.307Z,2.45
2018-04-18T06:05:05.867Z,2.92
2018-04-18T06:07:32.471Z,2.72
2018-04-18T06:09:59.056Z,1.67
2018-04-18T06:12:25.655Z,2.00
2018-04-18T06:14:52.250Z,1.92
2018-04-18T06:17:18.850Z,2.58
2018-04-18T06:19:45.440Z,1.98
2018-04-18T06:22:12.045Z,2.92
2018-04-18T06:24:38.906Z,2.65
2018-04-18T06:27:05.560Z,2.37
2018-04-18T06:29:32.158Z,3.53
2018-04-18T06:31:58.754Z,2.40
2018-04-18T06:34:25.391Z,2.20
2018-04-18T06:36:51.976Z,2.00
2018-04-18T06:39:18.567Z,2.65
2018-04-18T06:41:45.144Z,3.15
2018-04-18T06:44:11.744Z,3.15
2018-04-18T06:46:38.328Z,2.35
2018-04-18T06:49:04.936Z,2.05
2018-04-18T06:51:31.832Z,2.03
2018-04-18T06:53:58.478Z,2.58
2018-04-18T06:56:25.056Z,1.92
2018-04-18T06:58:51.658Z,1.90
2018-04-18T07:01:18.283Z,2.03
2018-04-18T07:03:45.728Z,2.42
2018-04-18T07:06:12.344Z,2.08
2018-04-18T07:08:38.933Z,2.87
2018-04-18T07:11:05.519Z,3.03
2018-04-18T07:13:32.110Z,1.92
2018-04-18T07:15:58.719Z,2.42
2018-04-18T07:18:25.312Z,2.22
2018-04-18T07:20:51.900Z,2.90
2018-04-18T07:23:18.491Z,2.37
2018-04-18T07:25:45.084Z,2.33
2018-04-18T07:28:11.691Z,2.83
2018-04-18T07:30:38.299Z,1.42
2018-04-18T07:33:04.885Z,2.00
2018-04-18T07:35:31.515Z,2.10
2018-04-18T07:37:58.096Z,3.00
2018-04-18T07:40:25.236Z,2.95
2018-04-18T07:42:51.836Z,2.30
2018-04-18T07:45:18.439Z,2.70
2018-04-18T07:47:45.026Z,2.50
2018-04-18T07:50:11.626Z,2.87
2018-04-18T07:52:38.230Z,2.20
2018-04-18T07:55:04.828Z,2.08
2018-04-18T07:57:31.427Z,2.42
2018-04-18T07:59:58.036Z,2.12
2018-04-18T08:02:24.616Z,2.47
2018-04-18T08:04:51.540Z,1.70
2018-04-18T08:07:18.195Z,1.83
2018-04-18T08:09:44.805Z,1.70
2018-04-18T08:12:11.398Z,2.15
2018-04-18T08:14:37.998Z,1.95
2018-04-18T08:17:04.603Z,1.62
2018-04-18T08:19:31.274Z,3.22
2018-04-18T08:21:57.860Z,1.60
2018-04-18T08:24:24.463Z,2.17
2018-04-18T08:26:51.049Z,2.62
2018-04-18T08:29:17.694Z,2.75
2018-04-18T08:31:44.292Z,2.72
2018-04-18T08:34:10.886Z,3.08
2018-04-18T08:36:37.709Z,1.55
2018-04-18T08:39:05.012Z,2.53
2018-04-18T08:41:31.708Z,3.00
2018-04-18T08:43:58.302Z,2.55
2018-04-18T08:46:24.889Z,2.65
2018-04-18T08:48:51.502Z,1.33
2018-04-18T08:51:18.068Z,2.12
2018-04-18T08:53:44.669Z,1.83
2018-04-18T08:56:11.278Z,1.90
2018-04-18T08:58:38.013Z,2.37
2018-04-18T09:01:04.606Z,2.03
2018-04-18T09:03:31.206Z,1.85
2018-04-18T09:05:57.789Z,2.80
2018-04-18T09:08:24.384Z,1.87
2018-04-18T09:10:50.982Z,1.40
2018-04-18T09:13:18.204Z,2.28
2018-04-18T09:15:44.845Z,2.10
2018-04-18T09:18:11.408Z,1.62
2018-04-18T09:20:38.006Z,1.50
2018-04-18T09:23:04.608Z,1.77
2018-04-18T09:25:31.212Z,1.52
2018-04-18T09:27:57.799Z,2.00
2018-04-18T09:30:24.390Z,1.80
2018-04-18T09:32:50.987Z,2.00
2018-04-18T09:35:17.582Z,1.30
2018-04-18T09:37:44.179Z,1.45
2018-04-18T09:40:10.778Z,1.95
2018-04-18T09:42:38.066Z,1.98
2018-04-18T09:45:04.677Z,1.10
2018-04-18T09:47:31.261Z,1.23
2018-04-18T09:49:57.840Z,1.70
2018-04-18T09:52:24.449Z,1.65
2018-04-18T09:54:51.032Z,1.98
2018-04-18T09:57:18.550Z,1.83
2018-04-18T09:59:45.124Z,2.55
2018-04-18T10:02:17.735Z,1.65
2018-04-18T10:04:44.336Z,2.60
2018-04-18T10:07:10.950Z,1.40
2018-04-18T10:09:38.140Z,2.12
2018-04-18T10:12:04.748Z,1.80
2018-04-18T10:14:31.343Z,1.50
2018-04-18T10:16:57.929Z,1.85
2018-04-18T10:19:24.530Z,1.90
2018-04-18T10:21:51.122Z,1.70
2018-04-18T10:24:17.703Z,1.30
2018-04-18T10:26:44.297Z,3.12
2018-04-18T10:29:10.906Z,2.60
2018-04-18T10:31:38.195Z,1.90
2018-04-18T10:34:04.781Z,3.12
2018-04-18T10:36:31.376Z,3.65
2018-04-18T10:38:57.990Z,1.98
2018-04-18T10:41:24.575Z,2.70
2018-04-18T10:43:51.164Z,2.50
2018-04-18T10:46:17.760Z,2.70
2018-04-18T10:48:44.350Z,1.58
2018-04-18T10:51:10.936Z,3.17
2018-04-18T10:53:38.415Z,1.85
2018-04-18T10:56:04.994Z,2.70
2018-04-18T10:58:31.647Z,3.17
2018-04-18T11:00:58.188Z,2.08
2018-04-18T11:03:25.084Z,3.35
2018-04-18T11:05:51.691Z,3.45
2018-04-18T11:08:18.292Z,2.53
2018-04-18T11:10:44.926Z,2.30
2018-04-18T11:13:11.980Z,2.53
2018-04-18T11:15:38.582Z,3.53
2018-04-18T11:18:05.172Z,2.85
2018-04-18T11:20:31.778Z,2.03
2018-04-18T11:22:58.368Z,3.58
2018-04-18T11:25:24.960Z,3.03
2018-04-18T11:27:51.550Z,2.65
2018-04-18T11:30:18.137Z,2.67
2018-04-18T11:32:44.730Z,2.50
2018-04-18T11:35:11.330Z,2.90
2018-04-18T11:37:37.919Z,2.72
2018-04-18T11:40:04.504Z,2.67
2018-04-18T11:42:31.108Z,3.10
2018-04-18T11:44:57.729Z,2.83
2018-04-18T11:47:24.323Z,3.55
2018-04-18T11:49:50.928Z,3.03
2018-04-18T11:52:17.527Z,3.10
2018-04-18T11:54:44.108Z,2.05
2018-04-18T11:57:10.695Z,2.12
2018-04-18T11:59:38.200Z,2.40
2018-04-18T12:02:04.791Z,2.12
2018-04-18T12:04:31.380Z,2.40
2018-04-18T12:06:57.990Z,1.80
2018-04-18T12:09:24.586Z,2.50
2018-04-18T12:11:51.183Z,2.40
2018-04-18T12:14:17.900Z,1.73
2018-04-18T12:16:44.636Z,2.33
2018-04-18T12:19:11.238Z,2.45
2018-04-18T12:21:38.303Z,2.40
2018-04-18T12:24:04.896Z,2.72
2018-04-18T12:26:31.480Z,1.87
2018-04-18T12:28:58.068Z,2.67
2018-04-18T12:31:25.558Z,2.60
2018-04-18T12:33:52.157Z,2.10
2018-04-18T12:36:18.751Z,2.22
2018-04-18T12:38:45.340Z,1.95
2018-04-18T12:41:11.928Z,1.62
2018-04-18T12:43:38.526Z,1.62
2018-04-18T12:46:05.112Z,1.92
2018-04-18T12:48:31.700Z,1.20
2018-04-18T12:50:58.298Z,2.08
2018-04-18T12:53:24.906Z,2.03
2018-04-18T12:55:51.498Z,2.95
2018-04-18T12:58:18.090Z,1.92
2018-04-18T13:00:44.676Z,1.75
2018-04-18T13:03:11.260Z,2.33
2018-04-18T13:05:37.858Z,1.87
2018-04-18T13:08:04.448Z,1.42
2018-04-18T13:10:31.556Z,1.70
2018-04-18T13:12:58.159Z,2.05
2018-04-18T13:15:24.766Z,2.75
2018-04-18T13:17:52.256Z,1.10
2018-04-18T13:20:18.840Z,1.40
2018-04-18T13:22:45.446Z,1.60
2018-04-18T13:25:12.029Z,1.45
2018-04-18T13:27:39.251Z,1.90
2018-04-18T13:30:05.857Z,1.50
2018-04-18T13:32:32.454Z,1.87
2018-04-18T13:34:59.040Z,1.15
2018-04-18T13:37:25.639Z,2.40
2018-04-18T13:39:52.241Z,1.25
2018-04-18T13:42:18.824Z,1.92
2018-04-18T13:44:45.430Z,1.27
2018-04-18T13:47:12.082Z,1.80
2018-04-18T13:49:38.638Z,2.20
2018-04-18T13:52:05.231Z,1.52
2018-04-18T13:54:31.816Z,1.77
2018-04-18T13:56:58.407Z,2.10
2018-04-18T13:59:25.010Z,2.17
2018-04-18T14:01:51.609Z,2.10
2018-04-18T14:04:18.198Z,1.42
2018-04-18T14:06:44.799Z,1.35
2018-04-18T14:09:11.400Z,1.35
2018-04-18T14:11:37.990Z,1.80
2018-04-18T14:14:04.586Z,1.98
2018-04-18T14:16:31.175Z,1.40
2018-04-18T14:18:57.774Z,1.83
2018-04-18T14:21:24.361Z,1.30
2018-04-18T14:23:50.962Z,1.73
2018-04-18T14:26:17.560Z,1.10
2018-04-18T14:28:44.546Z,1.58
2018-04-18T14:31:11.144Z,1.33
2018-04-18T14:33:37.779Z,1.83
2018-04-18T14:36:04.368Z,1.50
2018-04-18T14:38:30.962Z,1.87
2018-04-18T14:40:58.064Z,1.65
2018-04-18T14:43:24.663Z,2.15
2018-04-18T14:45:51.318Z,1.33
2018-04-18T14:48:17.854Z,1.90
2018-04-18T14:50:44.450Z,2.28
2018-04-18T14:53:11.040Z,1.10
2018-04-18T14:55:37.647Z,2.35
2018-04-18T14:58:04.244Z,1.83
2018-04-18T15:00:30.846Z,3.17
2018-04-18T15:02:57.524Z,3.35
2018-04-18T15:05:24.887Z,3.83
2018-04-18T15:07:51.488Z,5.18
2018-04-18T15:10:18.082Z,2.62
2018-04-18T15:12:44.684Z,3.40
2018-04-18T15:15:11.291Z,3.00
2018-04-18T15:17:38.016Z,3.37
2018-04-18T15:20:05.237Z,3.00
2018-04-18T15:22:32.592Z,3.55
2018-04-18T15:24:59.199Z,3.08
2018-04-18T15:27:25.784Z,3.20
2018-04-18T15:29:52.368Z,3.05
2018-04-18T15:32:19.587Z,4.10
2018-04-18T15:34:47.826Z,3.90
2018-04-18T15:37:14.434Z,3.75
2018-04-18T15:39:41.035Z,4.40
2018-04-18T15:42:07.677Z,3.72
2018-04-18T15:44:34.319Z,3.95
2018-04-18T15:47:00.881Z,4.20
2018-04-18T15:49:27.478Z,3.83
2018-04-18T15:51:54.087Z,4.45
2018-04-18T15:54:20.707Z,4.85
2018-04-18T15:56:47.315Z,3.45
2018-04-18T15:59:13.918Z,4.30
2018-04-18T16:01:40.500Z,4.85
2018-04-18T16:04:07.094Z,5.68
2018-04-18T16:06:33.698Z,4.95
2018-04-18T16:09:00.315Z,5.30
2018-04-18T16:11:26.900Z,4.25
2018-04-18T16:13:53.595Z,7.25
2018-04-18T16:16:20.182Z,4.45
2018-04-18T16:18:46.763Z,3.83
2018-04-18T16:21:13.361Z,6.05
2018-04-18T16:23:39.953Z,5.32
2018-04-18T16:26:06.551Z,4.25
2018-04-18T16:28:33.169Z,5.60
2018-04-18T16:30:59.964Z,4.35
2018-04-18T16:33:27.600Z,4.55
2018-04-18T16:35:54.211Z,5.53
2018-04-18T16:38:20.800Z,5.43
2018-04-18T16:40:47.388Z,5.68
2018-04-18T16:43:13.976Z,5.43
2018-04-18T16:45:41.116Z,6.95
2018-04-18T16:48:07.691Z,4.18
2018-04-18T16:50:34.322Z,5.50
2018-04-18T16:53:00.889Z,6.95
2018-04-18T16:55:27.543Z,5.40
2018-04-18T16:57:54.408Z,7.25
2018-04-18T17:00:20.984Z,6.43
2018-04-18T17:02:47.590Z,5.95
2018-04-18T17:05:14.344Z,5.53
2018-04-18T17:07:40.950Z,4.55
2018-04-18T17:10:07.532Z,4.82
2018-04-18T17:12:34.226Z,6.12
2018-04-18T17:15:00.817Z,7.75
2018-04-18T17:17:27.435Z,7.68
2018-04-18T17:19:54.021Z,6.12
2018-04-18T17:22:20.667Z,6.68
2018-04-18T17:24:47.324Z,7.95
2018-04-18T17:27:13.969Z,5.62
2018-04-18T17:29:40.570Z,7.05
2018-04-18T17:32:07.174Z,6.62
2018-04-18T17:34:34.628Z,4.97
2018-04-18T17:37:01.362Z,5.72
2018-04-18T17:39:27.979Z,5.60
2018-04-18T17:41:54.575Z,6.62
2018-04-18T17:44:21.208Z,6.65
2018-04-18T17:46:47.788Z,5.72
2018-04-18T17:49:14.384Z,8.18
2018-04-18T17:51:41.012Z,8.13
2018-04-18T17:54:07.600Z,5.50
2018-04-18T17:56:34.237Z,6.10
2018-04-18T17:59:00.842Z,8.32
2018-04-18T18:01:27.875Z,7.35
2018-04-18T18:03:54.614Z,5.72
2018-04-18T18:06:21.357Z,5.30
2018-04-18T18:08:47.895Z,7.68
2018-04-18T18:11:14.771Z,5.87
2018-04-18T18:13:41.380Z,5.37
2018-04-18T18:16:08.014Z,6.75
2018-04-18T18:18:35.010Z,5.70
2018-04-18T18:21:01.642Z,6.28
2018-04-18T18:23:28.274Z,6.65
2018-04-18T18:25:54.886Z,5.32
2018-04-18T18:28:21.976Z,9.00
2018-04-18T18:30:48.584Z,5.03
2018-04-18T18:33:15.179Z,6.55
2018-04-18T18:35:42.680Z,4.30
2018-04-18T18:38:09.282Z,4.15
2018-04-18T18:40:35.914Z,3.37
2018-04-18T18:43:03.239Z,5.40
2018-04-18T18:45:29.838Z,4.60
2018-04-18T18:47:57.143Z,7.43
2018-04-18T18:50:24.263Z,4.10
2018-04-18T18:52:50.927Z,2.92
2018-04-18T18:55:18.423Z,3.50
2018-04-18T18:57:45.031Z,2.55
2018-04-18T19:00:11.704Z,3.22
2018-04-18T19:02:38.243Z,3.10
2018-04-18T19:05:04.843Z,3.70
2018-04-18T19:07:32.069Z,3.45
2018-04-18T19:09:58.664Z,2.92
2018-04-18T19:12:25.258Z,2.60
2018-04-18T19:14:51.953Z,1.90
2018-04-18T19:17:18.540Z,2.95
2018-04-18T19:19:45.763Z,2.80
2018-04-18T19:22:12.357Z,2.22
2018-04-18T19:24:38.944Z,1.95
2018-04-18T19:27:05.540Z,2.72
2018-04-18T19:29:32.129Z,2.80
2018-04-18T19:31:59.293Z,2.00
2018-04-18T19:34:25.925Z,4.50
2018-04-18T19:36:52.557Z,2.05
2018-04-18T19:39:19.153Z,2.90
2018-04-18T19:41:45.741Z,2.40
2018-04-18T19:44:12.328Z,2.80
2018-04-18T19:46:38.938Z,2.92
2018-04-18T19:49:06.010Z,2.20
2018-04-18T19:51:32.600Z,2.55
2018-04-18T19:54:00.203Z,3.30
2018-04-18T19:56:26.821Z,1.35
2018-04-18T19:58:53.397Z,1.62
2018-04-18T20:01:19.999Z,1.87
2018-04-18T20:03:46.589Z,2.25
2018-04-18T20:06:13.180Z,2.15
2018-04-18T20:08:39.783Z,1.58
2018-04-18T20:11:06.434Z,1.95
2018-04-18T20:13:32.972Z,2.35
2018-04-18T20:15:59.571Z,3.08
2018-04-18T20:18:26.153Z,2.53
2018-04-18T20:20:52.738Z,2.33
2018-04-18T20:23:19.339Z,1.83
2018-04-18T20:25:45.934Z,2.12
2018-04-18T20:28:12.532Z,2.67
2018-04-18T20:30:39.127Z,2.00
2018-04-18T20:33:05.721Z,2.40
2018-04-18T20:35:32.321Z,2.37
2018-04-18T20:37:58.972Z,2.30
2018-04-18T20:40:25.519Z,2.72
2018-04-18T20:42:54.977Z,2.03
2018-04-18T20:45:21.582Z,2.30
2018-04-18T20:47:48.174Z,1.90
2018-04-18T20:50:14.775Z,3.22
2018-04-18T20:52:42.233Z,2.00
2018-04-18T20:55:08.834Z,1.70
2018-04-18T20:57:35.420Z,2.60
2018-04-18T21:00:02.625Z,2.03
2018-04-18T21:02:29.209Z,2.92
2018-04-18T21:04:55.807Z,2.22
2018-04-18T21:07:23.110Z,3.55
2018-04-18T21:09:49.704Z,2.47
2018-04-18T21:12:16.318Z,2.17
2018-04-18T21:14:43.008Z,2.25
2018-04-18T21:17:09.608Z,1.65
2018-04-18T21:19:36.203Z,3.53
2018-04-18T21:22:04.002Z,2.87
2018-04-18T21:24:30.585Z,2.80
2018-04-18T21:26:57.184Z,3.00
2018-04-18T21:29:23.776Z,2.70
2018-04-18T21:31:50.366Z,2.58
2018-04-18T21:34:17.549Z,2.97
2018-04-18T21:36:44.148Z,2.80
2018-04-18T21:39:10.737Z,3.30
2018-04-18T21:41:38.039Z,1.90
2018-04-18T21:44:04.634Z,2.35
2018-04-18T21:46:31.837Z,2.30
2018-04-18T21:48:58.428Z,2.65
2018-04-18T21:51:25.020Z,2.45
2018-04-18T21:53:51.619Z,1.95
2018-04-18T21:56:18.200Z,1.95
2018-04-18T21:58:44.792Z,1.62
2018-04-18T22:01:11.395Z,2.67
2018-04-18T22:03:37.996Z,2.20
2018-04-18T22:06:04.585Z,3.22
2018-04-18T22:08:31.179Z,2.00
2018-04-18T22:10:58.041Z,2.60
2018-04-18T22:13:24.634Z,2.22
2018-04-18T22:15:51.794Z,2.37
2018-04-18T22:18:18.384Z,1.85
2018-04-18T22:20:44.987Z,3.00
2018-04-18T22:23:11.596Z,2.92
2018-04-18T22:25:38.410Z,2.12
2018-04-18T22:28:05.899Z,2.08
2018-04-18T22:30:32.484Z,2.12
2018-04-18T22:32:59.081Z,2.35
2018-04-18T22:35:25.683Z,2.95
2018-04-18T22:37:52.270Z,1.92
2018-04-18T22:40:18.852Z,1.73
2018-04-18T22:42:45.445Z,2.97
2018-04-18T22:45:12.655Z,2.83
2018-04-18T22:47:39.245Z,2.17
2018-04-18T22:50:05.851Z,2.08
2018-04-18T22:52:32.446Z,2.62
2018-04-18T22:54:59.037Z,1.83
2018-04-18T22:57:25.628Z,2.28
2018-04-18T22:59:52.226Z,2.15
2018-04-18T23:02:18.820Z,2.28
2018-04-18T23:04:45.422Z,2.80
2018-04-18T23:07:12.018Z,2.60
2018-04-18T23:09:38.607Z,2.53
2018-04-18T23:12:05.206Z,2.70
2018-04-18T23:14:31.806Z,2.53
2018-04-18T23:16:58.413Z,2.70
2018-04-18T23:19:25.009Z,2.78
2018-04-18T23:21:51.589Z,2.90
2018-04-18T23:24:18.195Z,3.00
2018-04-18T23:26:44.775Z,2.20
2018-04-18T23:29:11.374Z,2.75
2018-04-18T23:31:37.980Z,2.40
2018-04-18T23:34:04.569Z,1.70
2018-04-18T23:36:31.158Z,2.28
2018-04-18T23:38:58.508Z,2.80
2018-04-18T23:41:25.100Z,3.67
2018-04-18T23:43:51.701Z,1.83
2018-04-18T23:46:18.302Z,2.37
2018-04-18T23:48:44.906Z,3.15
2018-04-18T23:51:11.496Z,2.50
2018-04-18T23:53:38.103Z,3.62
2018-04-18T23:56:04.702Z,2.33
2018-04-18T23:58:31.300Z,2.50
